Whitcomb Heights, Indiana
Current Conditions -  °F | °C
As of 1:53 AM on Friday 28 Nov 2014 (Local Time) from KHUF Reporting Station
Clear Clear  
Wind Chill: -8°   Ceiling: Unl
Heat Index: -8°   Visibility: 9mi
Dew Point: -9°   Wind: 3mph
Humidity: 88%   Direction: 260°W
Pressure: 30.42"   Gusts: NA
Location:  39.5107°N, 87.4772°W
Report Text: KHUF 280653Z 26003KT 9SM CLR M08/M09 A3042 RMK AO2 SLP309 T10781094
Loading
Personal Weather Stations






























Interactive Weather Map New forecast layout! Learn more

10-Day Weather Forecast

Advertisements
Track Severe Weather on mobile